createdAt,value
2022-08-18T00:01:48.797Z,32.20
2022-08-18T00:06:53.471Z,32.20
2022-08-18T00:11:56.679Z,32.10
2022-08-18T00:17:00.292Z,32.10
2022-08-18T00:22:05.056Z,32.10
2022-08-18T00:27:10.553Z,32.10
2022-08-18T00:32:15.965Z,32.00
2022-08-18T00:37:21.255Z,32.00
2022-08-18T00:42:30.977Z,32.00
2022-08-18T00:47:42.468Z,32.00
2022-08-18T00:52:56.691Z,31.90
2022-08-18T00:58:06.767Z,31.90
2022-08-18T01:03:15.554Z,31.90
2022-08-18T01:08:29.762Z,31.90
2022-08-18T01:13:35.139Z,31.90
2022-08-18T01:18:55.722Z,31.90
2022-08-18T01:24:03.575Z,31.80
2022-08-18T01:29:11.718Z,31.80
2022-08-18T01:34:24.855Z,31.80
2022-08-18T01:41:12.876Z,31.80
2022-08-18T01:44:53.073Z,31.80
2022-08-18T01:49:58.386Z,31.80
2022-08-18T01:55:03.437Z,31.70
2022-08-18T02:00:10.296Z,31.80
2022-08-18T02:05:19.558Z,31.70
2022-08-18T02:10:24.243Z,31.70
2022-08-18T02:15:28.236Z,31.60
2022-08-18T02:20:31.959Z,31.60
2022-08-18T02:25:36.487Z,31.60
2022-08-18T02:30:39.784Z,31.50
2022-08-18T02:35:44.118Z,31.50
2022-08-18T02:40:48.928Z,31.40
2022-08-18T02:45:52.396Z,31.40
2022-08-18T02:51:01.723Z,31.40
2022-08-18T02:56:41.430Z,31.40
2022-08-18T03:01:50.232Z,31.30
2022-08-18T03:06:53.482Z,31.30
2022-08-18T03:11:58.924Z,31.30
2022-08-18T03:17:02.096Z,31.20
2022-08-18T03:22:27.498Z,31.20
2022-08-18T03:27:30.971Z,31.10
2022-08-18T03:32:34.207Z,31.10
2022-08-18T03:37:37.521Z,31.10
2022-08-18T03:42:42.172Z,31.10
2022-08-18T03:47:46.023Z,31.10
2022-08-18T03:52:49.388Z,31.00
2022-08-18T03:57:55.573Z,31.00
2022-08-18T04:03:00.537Z,31.00
2022-08-18T04:08:05.552Z,31.00
2022-08-18T04:13:10.410Z,31.00
2022-08-18T04:18:13.632Z,31.00
2022-08-18T04:23:17.568Z,31.00
2022-08-18T04:28:22.169Z,31.00
2022-08-18T04:33:25.440Z,31.00
2022-08-18T04:38:28.666Z,31.00
2022-08-18T04:43:34.053Z,31.00
2022-08-18T04:48:40.664Z,31.10
2022-08-18T04:53:47.949Z,31.10
2022-08-18T04:58:53.429Z,31.10
2022-08-18T05:03:58.773Z,31.10
2022-08-18T05:09:04.995Z,31.10
2022-08-18T05:14:10.462Z,31.10
2022-08-18T05:19:13.673Z,31.20
2022-08-18T05:24:17.086Z,31.20
2022-08-18T05:29:23.547Z,31.30
2022-08-18T05:34:27.214Z,31.30
2022-08-18T05:39:39.176Z,31.40
2022-08-18T05:44:47.220Z,31.50
2022-08-18T05:49:51.149Z,31.50
2022-08-18T05:55:14.991Z,31.60
2022-08-18T06:00:24.262Z,31.70
2022-08-18T06:05:31.813Z,31.80
2022-08-18T06:10:36.617Z,31.80
2022-08-18T06:15:49.063Z,31.80
2022-08-18T06:21:22.557Z,31.90
2022-08-18T06:26:37.468Z,32.00
2022-08-18T06:31:50.718Z,32.00
2022-08-18T06:37:00.510Z,32.00
2022-08-18T06:42:06.165Z,32.00
2022-08-18T06:47:19.639Z,32.10
2022-08-18T06:52:26.434Z,32.10
2022-08-18T06:57:34.634Z,32.20
2022-08-18T07:02:49.139Z,32.20
2022-08-18T07:08:14.742Z,32.20
2022-08-18T07:13:21.665Z,32.20
2022-08-18T07:18:29.922Z,32.30
2022-08-18T07:23:38.369Z,32.40
2022-08-18T07:28:44.355Z,32.40
2022-08-18T07:33:58.612Z,32.50
2022-08-18T07:39:07.118Z,32.50
2022-08-18T07:44:19.641Z,32.60
2022-08-18T07:49:27.473Z,32.70
2022-08-18T07:54:50.465Z,32.70
2022-08-18T08:00:02.155Z,32.80
2022-08-18T08:05:22.600Z,32.90
2022-08-18T08:10:37.954Z,33.00
2022-08-18T08:15:52.747Z,33.10
2022-08-18T08:21:02.078Z,33.30
2022-08-18T08:26:27.033Z,33.40
2022-08-18T08:31:38.459Z,33.50
2022-08-18T08:36:46.392Z,33.60
2022-08-18T08:42:28.882Z,33.80
2022-08-18T08:47:23.299Z,34.00
2022-08-18T08:52:31.829Z,34.20
2022-08-18T08:57:42.738Z,34.30
2022-08-18T09:02:59.202Z,34.60
2022-08-18T09:08:30.882Z,34.70
2022-08-18T09:13:58.459Z,35.00
2022-08-18T09:19:25.524Z,35.20
2022-08-18T09:24:33.203Z,35.40
2022-08-18T09:29:51.202Z,35.60
2022-08-18T09:35:05.368Z,35.80
2022-08-18T09:40:51.288Z,36.00
2022-08-18T09:45:59.700Z,36.10
2022-08-18T09:51:32.594Z,36.30
2022-08-18T09:57:20.688Z,36.50
2022-08-18T10:03:12.765Z,36.70
2022-08-18T10:09:02.803Z,36.90
2022-08-18T10:14:49.473Z,37.20
2022-08-18T10:20:01.122Z,37.40
2022-08-18T10:25:22.116Z,37.50
2022-08-18T10:30:57.356Z,37.60
2022-08-18T10:41:38.144Z,37.90
2022-08-18T10:46:46.795Z,38.10
2022-08-18T10:52:06.418Z,38.20
2022-08-18T10:57:28.095Z,38.40
2022-08-18T11:02:46.665Z,38.60
2022-08-18T11:08:00.581Z,38.80
2022-08-18T11:13:14.819Z,39.10
2022-08-18T11:18:32.489Z,39.30
2022-08-18T11:23:41.386Z,39.50
2022-08-18T11:28:46.892Z,39.60
2022-08-18T11:33:51.403Z,39.90
2022-08-18T11:38:57.332Z,40.10
2022-08-18T11:44:03.325Z,40.30
2022-08-18T11:49:17.508Z,40.50
2022-08-18T11:54:37.426Z,40.60
2022-08-18T11:59:54.978Z,40.90
2022-08-18T12:05:10.574Z,41.00
2022-08-18T12:10:26.573Z,41.20
2022-08-18T12:15:43.693Z,41.40
2022-08-18T12:26:27.390Z,41.70
2022-08-18T12:31:42.767Z,41.90
2022-08-18T12:36:52.732Z,42.10
2022-08-18T12:41:56.098Z,42.30
2022-08-18T12:47:15.195Z,42.40
2022-08-18T12:52:19.924Z,42.50
2022-08-18T12:57:33.115Z,42.70
2022-08-18T13:02:38.311Z,42.80
2022-08-18T13:07:45.490Z,42.90
2022-08-18T13:12:51.254Z,43.00
2022-08-18T13:17:56.218Z,43.10
2022-08-18T13:23:00.149Z,43.00
2022-08-18T13:28:04.019Z,43.20
2022-08-18T13:33:53.462Z,43.20
2022-08-18T13:38:32.073Z,43.20
2022-08-18T13:43:38.934Z,43.20
2022-08-18T13:48:44.690Z,43.30
2022-08-18T13:53:59.056Z,43.40
2022-08-18T13:59:09.831Z,43.40
2022-08-18T14:04:20.199Z,43.40
2022-08-18T14:09:36.547Z,43.40
2022-08-18T14:14:41.037Z,43.40
2022-08-18T14:20:03.207Z,43.40
2022-08-18T14:25:24.682Z,43.30
2022-08-18T14:30:27.925Z,43.30
2022-08-18T14:36:03.642Z,43.20
2022-08-18T14:40:55.771Z,43.00
2022-08-18T14:45:59.410Z,42.90
2022-08-18T14:51:04.888Z,42.70
2022-08-18T14:56:13.288Z,42.50
2022-08-18T15:01:18.068Z,42.30
2022-08-18T15:06:27.271Z,42.00
2022-08-18T15:11:32.001Z,41.90
2022-08-18T15:16:38.438Z,41.70
2022-08-18T15:22:00.628Z,41.50
2022-08-18T15:27:06.128Z,41.40
2022-08-18T15:32:17.659Z,41.20
2022-08-18T15:37:24.025Z,41.10
2022-08-18T15:42:27.712Z,40.90
2022-08-18T15:47:31.332Z,40.80
2022-08-18T15:52:35.940Z,40.70
2022-08-18T15:57:44.464Z,40.50
2022-08-18T16:02:50.869Z,40.40
2022-08-18T16:07:56.668Z,40.20
2022-08-18T16:13:01.704Z,40.10
2022-08-18T16:18:05.896Z,40.00
2022-08-18T16:23:12.220Z,39.90
2022-08-18T16:28:16.455Z,39.70
2022-08-18T16:33:20.113Z,39.40
2022-08-18T16:38:29.013Z,39.20
2022-08-18T16:43:32.516Z,39.00
2022-08-18T16:48:35.756Z,38.80
2022-08-18T16:53:41.080Z,38.60
2022-08-18T16:59:03.365Z,38.50
2022-08-18T17:04:14.788Z,38.30
2022-08-18T17:09:26.085Z,38.20
2022-08-18T17:14:31.733Z,38.00
2022-08-18T17:19:37.694Z,37.80
2022-08-18T17:24:46.342Z,37.70
2022-08-18T17:30:07.121Z,37.50
2022-08-18T17:35:14.732Z,37.30
2022-08-18T17:40:28.868Z,37.10
2022-08-18T17:45:34.840Z,36.90
2022-08-18T17:50:59.192Z,36.80
2022-08-18T17:56:10.922Z,36.60
2022-08-18T18:01:15.339Z,36.40
2022-08-18T18:06:30.209Z,36.20
2022-08-18T18:11:37.576Z,36.00
2022-08-18T18:16:40.782Z,35.70
2022-08-18T18:22:00.692Z,35.60
2022-08-18T18:27:25.198Z,35.50
2022-08-18T18:32:31.377Z,35.30
2022-08-18T18:37:40.499Z,35.20
2022-08-18T18:42:45.103Z,35.10
2022-08-18T18:47:56.209Z,34.90
2022-08-18T18:53:14.499Z,34.80
2022-08-18T18:58:27.330Z,34.70
2022-08-18T19:03:38.331Z,34.60
2022-08-18T19:08:51.991Z,34.50
2022-08-18T19:14:02.694Z,34.40
2022-08-18T19:19:37.161Z,34.30
2022-08-18T19:24:49.241Z,34.20
2022-08-18T19:29:56.641Z,34.10
2022-08-18T19:35:04.352Z,34.00
2022-08-18T19:40:19.869Z,34.00
2022-08-18T19:45:33.039Z,33.90
2022-08-18T19:50:43.117Z,33.70
2022-08-18T19:56:01.615Z,33.70
2022-08-18T20:01:21.020Z,33.60
2022-08-18T20:06:52.108Z,33.60
2022-08-18T20:12:16.149Z,33.50
2022-08-18T20:17:23.476Z,33.40
2022-08-18T20:22:33.956Z,33.30
2022-08-18T20:27:41.046Z,33.20
2022-08-18T20:32:46.112Z,33.20
2022-08-18T20:37:49.442Z,33.10
2022-08-18T20:42:57.449Z,33.10
2022-08-18T20:48:40.710Z,33.00
2022-08-18T20:54:02.341Z,32.90
2022-08-18T20:59:10.158Z,32.90
2022-08-18T21:04:14.736Z,32.80
2022-08-18T21:09:19.410Z,32.80
2022-08-18T21:14:27.146Z,32.70
2022-08-18T21:19:42.227Z,32.60
2022-08-18T21:24:49.897Z,32.60
2022-08-18T21:29:54.554Z,32.60
2022-08-18T21:35:02.062Z,32.50
2022-08-18T21:40:06.472Z,32.40
2022-08-18T21:45:16.550Z,32.40
2022-08-18T21:50:24.022Z,32.40
2022-08-18T21:55:31.682Z,32.30
2022-08-18T22:00:37.280Z,32.30
2022-08-18T22:05:55.896Z,32.20
2022-08-18T22:11:47.350Z,32.20
2022-08-18T22:17:28.414Z,32.10
2022-08-18T22:22:53.551Z,32.00
2022-08-18T22:28:00.507Z,32.00
2022-08-18T22:33:03.677Z,32.00
2022-08-18T22:38:08.309Z,31.90
2022-08-18T22:43:11.544Z,31.90
2022-08-18T22:48:16.594Z,31.90
2022-08-18T22:53:21.221Z,31.80
2022-08-18T22:58:28.044Z,31.80
2022-08-18T23:03:31.940Z,31.70
2022-08-18T23:08:54.755Z,31.70
2022-08-18T23:14:02.235Z,31.70
2022-08-18T23:19:05.508Z,31.60
2022-08-18T23:24:12.248Z,31.60
2022-08-18T23:29:15.486Z,31.60
2022-08-18T23:34:20.568Z,31.60
2022-08-18T23:39:26.498Z,31.50
2022-08-18T23:44:29.872Z,31.50
2022-08-18T23:49:33.936Z,31.40
2022-08-18T23:54:39.155Z,31.40
2022-08-18T23:59:42.365Z,31.40
